createdAt,value
2023-11-07T00:00:37.028Z,728.78
2023-11-07T00:01:37.024Z,734.40
2023-11-07T00:02:37.095Z,731.98
2023-11-07T00:03:37.129Z,731.98
2023-11-07T00:04:36.973Z,731.98
2023-11-07T00:05:37.134Z,732.78
2023-11-07T00:06:37.032Z,731.18
2023-11-07T00:07:36.944Z,732.78
2023-11-07T00:08:36.960Z,730.38
2023-11-07T00:09:36.933Z,730.38
2023-11-07T00:10:36.919Z,731.18
2023-11-07T00:11:37.011Z,731.18
2023-11-07T00:12:36.945Z,727.98
2023-11-07T00:13:36.933Z,730.38
2023-11-07T00:14:36.902Z,731.98
2023-11-07T00:15:36.890Z,724.82
2023-11-07T00:16:36.948Z,734.40
2023-11-07T00:17:36.917Z,730.38
2023-11-07T00:18:36.960Z,731.98
2023-11-07T00:19:36.816Z,732.78
2023-11-07T00:20:36.844Z,736.02
2023-11-07T00:21:36.841Z,731.98
2023-11-07T00:22:36.795Z,733.59
2023-11-07T00:23:36.845Z,733.59
2023-11-07T00:24:36.771Z,731.18
2023-11-07T00:25:36.771Z,731.18
2023-11-07T00:26:36.813Z,731.98
2023-11-07T00:27:36.723Z,728.78
2023-11-07T00:28:36.724Z,735.21
2023-11-07T00:29:36.897Z,735.21
2023-11-07T00:30:36.762Z,735.21
2023-11-07T00:31:36.694Z,738.46
2023-11-07T00:32:36.868Z,731.98
2023-11-07T00:33:36.897Z,733.59
2023-11-07T00:34:36.685Z,735.21
2023-11-07T00:35:36.677Z,727.98
2023-11-07T00:36:36.660Z,735.21
2023-11-07T00:37:37.362Z,736.83
2023-11-07T00:38:36.622Z,731.98
2023-11-07T00:39:36.646Z,731.98
2023-11-07T00:40:36.587Z,731.18
2023-11-07T00:41:36.715Z,731.18
2023-11-07T00:42:36.607Z,732.78
2023-11-07T00:43:36.565Z,733.59
2023-11-07T00:44:36.630Z,728.78
2023-11-07T00:45:36.554Z,730.38
2023-11-07T00:46:36.540Z,728.78
2023-11-07T00:47:36.592Z,732.78
2023-11-07T00:48:36.815Z,729.58
2023-11-07T00:49:37.315Z,727.19
2023-11-07T00:50:36.542Z,727.98
2023-11-07T00:51:36.491Z,724.82
2023-11-07T00:52:36.470Z,728.78
2023-11-07T00:53:36.471Z,727.98
2023-11-07T00:54:36.460Z,726.40
2023-11-07T00:55:36.452Z,729.58
2023-11-07T00:56:36.435Z,725.61
2023-11-07T00:57:36.400Z,724.03
2023-11-07T00:58:36.421Z,731.18
2023-11-07T00:59:36.425Z,723.25
2023-11-07T01:00:36.397Z,720.90
2023-11-07T01:01:36.368Z,720.90
2023-11-07T01:02:36.456Z,724.03
2023-11-07T01:03:36.472Z,723.25
2023-11-07T01:04:36.451Z,727.19
2023-11-07T01:05:36.403Z,725.61
2023-11-07T01:06:36.426Z,722.46
2023-11-07T01:07:36.333Z,730.38
2023-11-07T01:08:36.334Z,720.90
2023-11-07T01:09:36.293Z,725.61
2023-11-07T01:10:36.262Z,724.03
2023-11-07T01:11:36.412Z,723.25
2023-11-07T01:12:36.245Z,723.25
2023-11-07T01:13:36.235Z,722.46
2023-11-07T01:14:36.284Z,720.12
2023-11-07T01:15:36.260Z,721.68
2023-11-07T01:16:36.201Z,722.46
2023-11-07T01:17:36.361Z,723.25
2023-11-07T01:18:36.299Z,722.46
2023-11-07T01:19:36.185Z,720.12
2023-11-07T01:20:36.218Z,720.12
2023-11-07T01:21:36.152Z,720.12
2023-11-07T01:22:36.146Z,717.80
2023-11-07T01:23:36.142Z,717.80
2023-11-07T01:24:36.129Z,716.25
2023-11-07T01:25:36.148Z,719.34
2023-11-07T01:26:36.161Z,714.72
2023-11-07T01:27:36.107Z,720.12
2023-11-07T01:28:36.078Z,718.57
2023-11-07T01:29:36.110Z,720.90
2023-11-07T01:30:36.071Z,717.80
2023-11-07T01:31:36.054Z,717.80
2023-11-07T01:32:36.113Z,718.57
2023-11-07T01:33:36.321Z,717.02
2023-11-07T01:34:36.108Z,713.19
2023-11-07T01:35:36.013Z,719.34
2023-11-07T01:36:35.991Z,718.57
2023-11-07T01:37:36.037Z,714.72
2023-11-07T01:38:35.996Z,717.80
2023-11-07T01:39:36.034Z,713.19
2023-11-07T01:40:36.042Z,717.02
2023-11-07T01:41:35.956Z,717.80
2023-11-07T01:42:35.936Z,717.80
2023-11-07T01:43:35.901Z,718.57
2023-11-07T01:44:35.978Z,717.80
2023-11-07T01:45:35.903Z,717.02
2023-11-07T01:46:35.931Z,716.25
2023-11-07T01:47:35.897Z,718.57
2023-11-07T01:48:36.003Z,721.68
2023-11-07T01:49:35.838Z,713.19
2023-11-07T01:50:35.899Z,713.19
2023-11-07T01:51:39.650Z,714.72
2023-11-07T01:52:35.829Z,713.95
2023-11-07T01:53:35.857Z,707.89
2023-11-07T01:54:36.024Z,712.43
2023-11-07T01:55:35.807Z,714.72
2023-11-07T01:56:35.802Z,708.64
2023-11-07T01:57:35.747Z,710.91
2023-11-07T01:58:35.757Z,713.95
2023-11-07T01:59:35.782Z,714.72
2023-11-07T02:00:35.730Z,709.40
2023-11-07T02:01:36.787Z,713.95
2023-11-07T02:02:35.811Z,709.40
2023-11-07T02:03:35.729Z,713.95
2023-11-07T02:04:35.730Z,717.80
2023-11-07T02:05:35.975Z,711.67
2023-11-07T02:06:35.741Z,709.40
2023-11-07T02:07:35.711Z,716.25
2023-11-07T02:08:35.709Z,710.91
2023-11-07T02:09:35.658Z,710.91
2023-11-07T02:10:35.689Z,715.49
2023-11-07T02:11:35.675Z,714.72
2023-11-07T02:12:35.596Z,712.43
2023-11-07T02:13:35.627Z,713.19
2023-11-07T02:14:35.728Z,708.64
2023-11-07T02:15:35.592Z,714.72
2023-11-07T02:16:39.338Z,715.49
2023-11-07T02:17:35.627Z,710.91
2023-11-07T02:18:35.691Z,711.67
2023-11-07T02:19:35.698Z,712.43
2023-11-07T02:20:35.614Z,710.15
2023-11-07T02:21:35.518Z,715.49
2023-11-07T02:22:35.513Z,710.15
2023-11-07T02:23:35.583Z,710.91
2023-11-07T02:24:35.547Z,713.95
2023-11-07T02:25:35.539Z,712.43
2023-11-07T02:26:35.488Z,713.95
2023-11-07T02:27:35.446Z,714.72
2023-11-07T02:28:35.430Z,710.15
2023-11-07T02:29:35.501Z,716.25
2023-11-07T02:30:35.476Z,710.15
2023-11-07T02:31:35.404Z,713.95
2023-11-07T02:32:35.485Z,710.91
2023-11-07T02:33:35.473Z,712.43
2023-11-07T02:34:35.410Z,709.40
2023-11-07T02:35:35.408Z,709.40
2023-11-07T02:36:35.347Z,711.67
2023-11-07T02:37:35.324Z,708.64
2023-11-07T02:38:35.366Z,707.89
2023-11-07T02:39:35.354Z,706.39
2023-11-07T02:40:35.361Z,707.89
2023-11-07T02:41:35.300Z,707.14
2023-11-07T02:42:35.262Z,707.89
2023-11-07T02:43:35.361Z,708.64
2023-11-07T02:44:35.281Z,711.67
2023-11-07T02:45:35.462Z,709.40
2023-11-07T02:46:35.266Z,712.43
2023-11-07T02:47:39.768Z,708.64
2023-11-07T02:48:36.299Z,707.14
2023-11-07T02:49:35.269Z,711.67
2023-11-07T02:50:35.228Z,710.91
2023-11-07T02:51:35.207Z,713.19
2023-11-07T02:52:35.212Z,708.64
2023-11-07T02:53:35.191Z,706.39
2023-11-07T02:54:35.180Z,707.14
2023-11-07T02:55:35.411Z,705.64
2023-11-07T02:56:35.407Z,709.40
2023-11-07T02:57:35.134Z,706.39
2023-11-07T02:58:35.148Z,711.67
2023-11-07T02:59:35.109Z,706.39
2023-11-07T03:00:35.125Z,710.91
2023-11-07T03:01:35.077Z,707.14
2023-11-07T03:02:35.135Z,709.40
2023-11-07T03:03:35.137Z,711.67
2023-11-07T03:04:42.546Z,707.89
2023-11-07T03:05:35.143Z,708.64
2023-11-07T03:06:35.046Z,716.25
2023-11-07T03:07:35.000Z,709.40
2023-11-07T03:08:35.077Z,708.64
2023-11-07T03:09:34.969Z,713.19
2023-11-07T03:10:34.972Z,707.14
2023-11-07T03:11:34.985Z,704.15
2023-11-07T03:12:34.975Z,709.40
2023-11-07T03:13:34.947Z,713.95
2023-11-07T03:14:34.985Z,707.89
2023-11-07T03:15:34.925Z,708.64
2023-11-07T03:16:34.911Z,714.72
2023-11-07T03:17:35.026Z,708.64
2023-11-07T03:18:34.972Z,711.67
2023-11-07T03:19:34.885Z,714.72
2023-11-07T03:20:35.066Z,707.89
2023-11-07T03:21:34.847Z,708.64
2023-11-07T03:22:34.857Z,713.95
2023-11-07T03:23:34.864Z,710.91
2023-11-07T03:24:34.800Z,711.67
2023-11-07T03:25:34.797Z,712.43
2023-11-07T03:26:34.845Z,710.15
2023-11-07T03:27:34.794Z,713.19
2023-11-07T03:28:34.792Z,705.64
2023-11-07T03:29:34.826Z,714.72
2023-11-07T03:30:34.778Z,709.40
2023-11-07T03:31:34.749Z,710.15
2023-11-07T03:32:34.828Z,707.89
2023-11-07T03:33:34.882Z,710.91
2023-11-07T03:34:34.715Z,711.67
2023-11-07T03:35:34.762Z,710.15
2023-11-07T03:36:34.719Z,708.64
2023-11-07T03:37:34.673Z,713.95
2023-11-07T03:38:34.739Z,711.67
2023-11-07T03:39:34.657Z,710.91
2023-11-07T03:40:34.657Z,713.19
2023-11-07T03:41:34.796Z,709.40
2023-11-07T03:42:34.624Z,708.64
2023-11-07T03:43:34.606Z,707.14
2023-11-07T03:44:34.668Z,712.43
2023-11-07T03:45:34.586Z,716.25
2023-11-07T03:46:34.616Z,712.43
2023-11-07T03:47:34.697Z,713.95
2023-11-07T03:48:34.706Z,711.67
2023-11-07T03:49:34.541Z,711.67
2023-11-07T03:50:34.563Z,709.40
2023-11-07T03:51:34.573Z,708.64
2023-11-07T03:52:34.551Z,709.40
2023-11-07T03:53:34.541Z,710.15
2023-11-07T03:54:34.494Z,715.49
2023-11-07T03:55:34.611Z,710.15
2023-11-07T03:56:34.495Z,709.40
2023-11-07T03:57:34.528Z,710.15
2023-11-07T03:58:34.445Z,705.64
2023-11-07T03:59:34.496Z,704.15
2023-11-07T04:00:34.429Z,706.39
2023-11-07T04:01:34.411Z,705.64
2023-11-07T04:02:34.449Z,705.64
2023-11-07T04:03:34.645Z,709.40
2023-11-07T04:04:34.421Z,704.15
2023-11-07T04:05:34.517Z,708.64
2023-11-07T04:06:34.393Z,703.41
2023-11-07T04:07:34.416Z,707.14
2023-11-07T04:08:34.516Z,705.64
2023-11-07T04:09:34.333Z,707.14
2023-11-07T04:10:34.346Z,713.19
2023-11-07T04:11:34.352Z,707.89
2023-11-07T04:12:34.351Z,706.39
2023-11-07T04:13:34.346Z,708.64
2023-11-07T04:14:34.364Z,707.14
2023-11-07T04:15:34.393Z,709.40
2023-11-07T04:16:34.252Z,704.90
2023-11-07T04:17:34.463Z,704.15
2023-11-07T04:18:34.351Z,706.39
2023-11-07T04:19:34.310Z,705.64
2023-11-07T04:20:34.613Z,707.14
2023-11-07T04:21:34.278Z,708.64
2023-11-07T04:22:34.192Z,705.64
2023-11-07T04:23:34.361Z,709.40
2023-11-07T04:24:34.160Z,707.89
2023-11-07T04:25:34.170Z,710.15
2023-11-07T04:26:34.173Z,708.64
2023-11-07T04:27:34.153Z,707.14
2023-11-07T04:28:34.128Z,708.64
2023-11-07T04:29:34.257Z,708.64
2023-11-07T04:30:34.164Z,707.89
2023-11-07T04:31:34.089Z,709.40
2023-11-07T04:32:34.215Z,705.64
2023-11-07T04:33:34.214Z,707.14
2023-11-07T04:34:34.083Z,707.14
2023-11-07T04:35:34.063Z,707.89
2023-11-07T04:36:34.077Z,705.64
2023-11-07T04:37:34.076Z,703.41
2023-11-07T04:38:34.191Z,704.15
2023-11-07T04:39:34.098Z,705.64
2023-11-07T04:40:34.006Z,704.90
2023-11-07T04:41:34.046Z,707.89
2023-11-07T04:42:33.990Z,707.14
2023-11-07T04:43:34.033Z,707.89
2023-11-07T04:44:33.976Z,704.90
2023-11-07T04:45:33.964Z,703.41
2023-11-07T04:46:33.927Z,705.64
2023-11-07T04:47:34.263Z,708.64
2023-11-07T04:48:34.120Z,707.89
2023-11-07T04:49:34.106Z,707.89
2023-11-07T04:50:33.951Z,706.39
2023-11-07T04:51:33.873Z,701.93
2023-11-07T04:52:33.883Z,708.64
2023-11-07T04:53:33.949Z,707.14
2023-11-07T04:54:33.842Z,710.91
2023-11-07T04:55:33.839Z,710.15
2023-11-07T04:56:33.993Z,707.89
2023-11-07T04:57:33.811Z,703.41
2023-11-07T04:58:33.821Z,707.89
2023-11-07T04:59:33.786Z,707.89
2023-11-07T05:00:33.792Z,708.64
2023-11-07T05:01:33.779Z,705.64
2023-11-07T05:02:33.823Z,709.40
2023-11-07T05:03:38.955Z,707.89
2023-11-07T05:04:34.757Z,704.15
2023-11-07T05:05:33.714Z,706.39
2023-11-07T05:06:33.790Z,707.89
2023-11-07T05:07:33.706Z,702.67
2023-11-07T05:08:33.738Z,707.14
2023-11-07T05:09:33.734Z,707.89
2023-11-07T05:10:33.818Z,704.90
2023-11-07T05:11:33.990Z,706.39
2023-11-07T05:12:34.478Z,705.64
2023-11-07T05:13:33.655Z,709.40
2023-11-07T05:14:33.645Z,704.90
2023-11-07T05:15:33.627Z,707.14
2023-11-07T05:16:33.921Z,706.39
2023-11-07T05:17:34.406Z,707.14
2023-11-07T05:18:33.743Z,707.89
2023-11-07T05:19:33.929Z,707.14
2023-11-07T05:20:34.473Z,707.14
2023-11-07T05:21:34.305Z,709.40
2023-11-07T05:22:33.634Z,703.41
2023-11-07T05:23:34.368Z,706.39
2023-11-07T05:24:33.542Z,702.67
2023-11-07T05:25:33.529Z,708.64
2023-11-07T05:26:33.583Z,708.64
2023-11-07T05:27:33.497Z,706.39
2023-11-07T05:28:33.495Z,707.14
2023-11-07T05:29:33.528Z,702.67
2023-11-07T05:30:34.211Z,701.19
2023-11-07T05:31:33.458Z,707.89
2023-11-07T05:32:33.470Z,711.67
2023-11-07T05:33:33.605Z,708.64
2023-11-07T05:34:33.431Z,707.14
2023-11-07T05:35:33.411Z,705.64
2023-11-07T05:36:33.468Z,706.39
2023-11-07T05:37:33.400Z,708.64
2023-11-07T05:38:33.483Z,702.67
2023-11-07T05:39:33.396Z,705.64
2023-11-07T05:40:33.374Z,707.14
2023-11-07T05:41:33.353Z,706.39
2023-11-07T05:42:33.382Z,707.14
2023-11-07T05:43:33.489Z,701.19
2023-11-07T05:44:33.363Z,704.90
2023-11-07T05:45:33.314Z,704.90
2023-11-07T05:46:33.337Z,706.39
2023-11-07T05:47:33.440Z,701.93
2023-11-07T05:48:33.453Z,705.64
2023-11-07T05:49:33.295Z,705.64
2023-11-07T05:50:33.258Z,708.64
2023-11-07T05:51:33.325Z,701.93
2023-11-07T05:52:33.233Z,710.15
2023-11-07T05:53:33.252Z,707.89
2023-11-07T05:54:33.221Z,704.15
2023-11-07T05:55:33.278Z,709.40
2023-11-07T05:56:33.261Z,710.15
2023-11-07T05:57:33.163Z,706.39
2023-11-07T05:58:33.163Z,708.64
2023-11-07T05:59:33.235Z,706.39
2023-11-07T06:00:33.144Z,702.67
2023-11-07T06:01:33.136Z,707.14
2023-11-07T06:02:33.149Z,710.91
2023-11-07T06:03:33.321Z,704.90
2023-11-07T06:04:33.119Z,707.89
2023-11-07T06:05:33.089Z,712.43
2023-11-07T06:06:33.187Z,707.14
2023-11-07T06:07:33.055Z,714.72
2023-11-07T06:08:33.064Z,707.89
2023-11-07T06:09:33.121Z,717.02
2023-11-07T06:10:33.018Z,708.64
2023-11-07T06:11:33.052Z,707.14
2023-11-07T06:12:33.060Z,705.64
2023-11-07T06:13:33.051Z,705.64
2023-11-07T06:14:33.015Z,707.14
2023-11-07T06:15:33.034Z,708.64
2023-11-07T06:16:32.999Z,708.64
2023-11-07T06:17:33.003Z,707.89
2023-11-07T06:18:33.011Z,710.91
2023-11-07T06:19:32.994Z,710.91
2023-11-07T06:20:32.901Z,705.64
2023-11-07T06:21:32.896Z,706.39
2023-11-07T06:22:33.058Z,703.41
2023-11-07T06:23:32.880Z,710.15
2023-11-07T06:24:32.895Z,705.64
2023-11-07T06:25:32.973Z,707.89
2023-11-07T06:26:32.861Z,710.15
2023-11-07T06:27:32.859Z,704.15
2023-11-07T06:28:32.837Z,698.99
2023-11-07T06:29:32.842Z,701.19
2023-11-07T06:30:32.821Z,706.39
2023-11-07T06:31:32.789Z,701.93
2023-11-07T06:32:32.908Z,702.67
2023-11-07T06:33:32.928Z,707.14
2023-11-07T06:34:32.944Z,702.67
2023-11-07T06:35:32.785Z,700.45
2023-11-07T06:36:32.897Z,707.14
2023-11-07T06:37:32.726Z,701.19
2023-11-07T06:38:35.317Z,701.93
2023-11-07T06:39:32.765Z,702.67
2023-11-07T06:40:32.722Z,699.72
2023-11-07T06:41:32.697Z,700.45
2023-11-07T06:42:32.673Z,693.90
2023-11-07T06:43:32.705Z,697.52
2023-11-07T06:44:32.730Z,699.72
2023-11-07T06:45:32.644Z,696.79
2023-11-07T06:46:32.679Z,696.07
2023-11-07T06:47:32.676Z,699.72
2023-11-07T06:48:32.777Z,698.99
2023-11-07T06:49:32.717Z,700.45
2023-11-07T06:50:32.663Z,699.72
2023-11-07T06:51:32.576Z,700.45
2023-11-07T06:52:32.562Z,698.25
2023-11-07T06:53:32.564Z,701.19
2023-11-07T06:54:32.564Z,694.62
2023-11-07T06:55:32.559Z,698.25
2023-11-07T06:56:32.534Z,698.99
2023-11-07T06:57:32.521Z,698.25
2023-11-07T06:58:32.521Z,696.79
2023-11-07T06:59:32.514Z,700.45
2023-11-07T07:00:32.514Z,693.17
2023-11-07T07:01:32.500Z,698.25
2023-11-07T07:02:32.458Z,696.07
2023-11-07T07:03:32.550Z,695.34
2023-11-07T07:04:32.482Z,691.02
2023-11-07T07:05:32.508Z,693.17
2023-11-07T07:06:32.481Z,699.72
2023-11-07T07:07:32.410Z,697.52
2023-11-07T07:08:32.389Z,690.30
2023-11-07T07:09:32.427Z,691.73
2023-11-07T07:10:32.370Z,696.07
2023-11-07T07:11:32.350Z,690.30
2023-11-07T07:12:32.373Z,691.73
2023-11-07T07:13:32.355Z,690.30
2023-11-07T07:14:32.350Z,694.62
2023-11-07T07:15:32.311Z,690.30
2023-11-07T07:16:32.297Z,693.90
2023-11-07T07:17:32.320Z,695.34
2023-11-07T07:18:32.413Z,687.46
2023-11-07T07:19:32.474Z,688.88
2023-11-07T07:20:32.335Z,688.88
2023-11-07T07:21:32.247Z,685.34
2023-11-07T07:22:32.249Z,691.73
2023-11-07T07:23:32.220Z,692.45
2023-11-07T07:24:32.217Z,691.02
2023-11-07T07:25:32.437Z,691.02
2023-11-07T07:26:32.217Z,687.46
2023-11-07T07:27:32.188Z,695.34
2023-11-07T07:28:32.225Z,691.02
2023-11-07T07:29:32.170Z,690.30
2023-11-07T07:30:32.185Z,689.59
2023-11-07T07:31:32.137Z,694.62
2023-11-07T07:32:32.147Z,686.04
2023-11-07T07:33:32.348Z,686.75
2023-11-07T07:34:32.201Z,683.93
2023-11-07T07:35:32.172Z,688.88
2023-11-07T07:36:32.098Z,686.04
2023-11-07T07:37:32.114Z,686.04
2023-11-07T07:38:32.074Z,692.45
2023-11-07T07:39:32.881Z,693.90
2023-11-07T07:40:32.056Z,691.02
2023-11-07T07:41:32.056Z,691.02
2023-11-07T07:42:32.017Z,691.73
2023-11-07T07:43:32.042Z,686.04
2023-11-07T07:44:31.991Z,679.75
2023-11-07T07:45:33.536Z,691.02
2023-11-07T07:46:31.976Z,686.75
2023-11-07T07:47:32.089Z,691.73
2023-11-07T07:48:32.071Z,686.75
2023-11-07T07:49:32.012Z,693.90
2023-11-07T07:50:32.157Z,691.73
2023-11-07T07:51:32.055Z,692.45
2023-11-07T07:52:31.914Z,691.73
2023-11-07T07:53:32.025Z,694.62
2023-11-07T07:54:52.890Z,688.88
2023-11-07T07:55:35.446Z,693.90
2023-11-07T07:56:31.903Z,691.02
2023-11-07T07:57:31.860Z,693.90
2023-11-07T07:58:31.853Z,693.90
2023-11-07T07:59:32.014Z,696.07
2023-11-07T08:00:31.866Z,693.90
2023-11-07T08:01:31.835Z,694.62
2023-11-07T08:02:31.877Z,698.25
2023-11-07T08:03:31.816Z,701.19
2023-11-07T08:04:31.798Z,694.62
2023-11-07T08:05:31.842Z,695.34
2023-11-07T08:06:31.862Z,696.79
2023-11-07T08:07:31.756Z,701.93
2023-11-07T08:08:31.762Z,698.99
2023-11-07T08:09:31.732Z,693.90
2023-11-07T08:10:31.743Z,696.07
2023-11-07T08:11:31.724Z,698.25
2023-11-07T08:12:31.690Z,699.72
2023-11-07T08:13:31.682Z,693.17
2023-11-07T08:14:31.749Z,699.72
2023-11-07T08:15:31.685Z,699.72
2023-11-07T08:16:31.748Z,697.52
2023-11-07T08:17:31.651Z,698.25
2023-11-07T08:18:31.784Z,701.19
2023-11-07T08:19:31.642Z,697.52
2023-11-07T08:20:31.639Z,699.72
2023-11-07T08:21:31.589Z,698.99
2023-11-07T08:22:31.637Z,701.19
2023-11-07T08:23:31.602Z,698.25
2023-11-07T08:24:31.581Z,701.93
2023-11-07T08:25:31.658Z,698.25
2023-11-07T08:26:31.574Z,702.67
2023-11-07T08:27:32.337Z,704.15
2023-11-07T08:28:31.522Z,703.41
2023-11-07T08:29:31.649Z,704.90
2023-11-07T08:30:31.517Z,705.64
2023-11-07T08:31:31.533Z,706.39
2023-11-07T08:32:31.739Z,704.15
2023-11-07T08:33:31.589Z,705.64
2023-11-07T08:34:31.481Z,706.39
2023-11-07T08:35:31.539Z,706.39
2023-11-07T08:36:31.481Z,709.40
2023-11-07T08:37:31.430Z,710.15
2023-11-07T08:38:31.430Z,711.67
2023-11-07T08:39:31.439Z,710.15
2023-11-07T08:40:31.416Z,713.19
2023-11-07T08:41:31.420Z,712.43
2023-11-07T08:42:31.368Z,713.19
2023-11-07T08:43:31.364Z,712.43
2023-11-07T08:44:31.387Z,713.19
2023-11-07T08:45:31.379Z,713.19
2023-11-07T08:46:31.507Z,713.19
2023-11-07T08:47:31.390Z,715.49
2023-11-07T08:48:31.464Z,717.02
2023-11-07T08:49:31.468Z,716.25
2023-11-07T08:50:31.322Z,716.25
2023-11-07T08:51:31.324Z,715.49
2023-11-07T08:52:31.277Z,713.19
2023-11-07T08:53:31.274Z,713.95
2023-11-07T08:54:31.245Z,714.72
2023-11-07T08:55:31.249Z,714.72
2023-11-07T08:56:31.568Z,717.02
2023-11-07T08:57:31.297Z,714.72
2023-11-07T08:58:31.247Z,716.25
2023-11-07T08:59:31.190Z,716.25
2023-11-07T09:00:31.248Z,723.25
2023-11-07T09:01:31.263Z,716.25
2023-11-07T09:02:31.215Z,719.34
2023-11-07T09:03:31.227Z,720.90
2023-11-07T09:04:38.728Z,717.02
2023-11-07T09:05:31.159Z,724.03
2023-11-07T09:06:31.127Z,720.12
2023-11-07T09:07:31.134Z,720.90
2023-11-07T09:08:31.109Z,720.12
2023-11-07T09:09:31.172Z,727.19
2023-11-07T09:10:31.100Z,733.59
2023-11-07T09:11:31.106Z,727.19
2023-11-07T09:12:31.246Z,726.40
2023-11-07T09:13:31.098Z,731.18
2023-11-07T09:14:31.050Z,727.19
2023-11-07T09:15:31.056Z,733.59
2023-11-07T09:16:31.059Z,731.18
2023-11-07T09:17:32.072Z,734.40
2023-11-07T09:18:31.079Z,725.61
2023-11-07T09:19:31.137Z,729.58
2023-11-07T09:20:30.963Z,740.10
2023-11-07T09:21:30.952Z,736.83
2023-11-07T09:22:31.124Z,736.02
2023-11-07T09:23:30.936Z,738.46
2023-11-07T09:24:30.933Z,738.46
2023-11-07T09:25:30.921Z,739.28
2023-11-07T09:26:30.931Z,733.59
2023-11-07T09:27:31.231Z,734.40
2023-11-07T09:28:30.883Z,736.83
2023-11-07T09:29:30.899Z,736.02
2023-11-07T09:30:30.891Z,738.46
2023-11-07T09:31:30.904Z,736.83
2023-11-07T09:32:31.052Z,738.46
2023-11-07T09:33:30.989Z,737.65
2023-11-07T09:34:30.901Z,733.59
2023-11-07T09:35:30.793Z,745.06
2023-11-07T09:36:30.799Z,737.65
2023-11-07T09:37:30.865Z,737.65
2023-11-07T09:38:39.305Z,740.92
2023-11-07T09:39:31.790Z,738.46
2023-11-07T09:40:30.853Z,741.75
2023-11-07T09:41:30.750Z,744.23
2023-11-07T09:42:30.811Z,739.28
2023-11-07T09:43:30.820Z,742.58
2023-11-07T09:44:30.716Z,746.23
2023-11-07T09:45:30.819Z,744.23
2023-11-07T09:46:30.696Z,750.09
2023-11-07T09:47:30.730Z,742.58
2023-11-07T09:48:30.776Z,742.58
2023-11-07T09:49:30.988Z,747.90
2023-11-07T09:50:30.691Z,749.16
2023-11-07T09:51:30.631Z,747.06
2023-11-07T09:52:30.663Z,751.27
2023-11-07T09:53:30.616Z,747.57
2023-11-07T09:54:30.729Z,752.96
2023-11-07T09:55:32.033Z,748.74
2023-11-07T09:56:30.613Z,747.48
2023-11-07T09:57:30.582Z,745.06
2023-11-07T09:58:30.560Z,748.41
2023-11-07T09:59:30.547Z,750.42
2023-11-07T10:00:30.588Z,750.84
2023-11-07T10:01:30.516Z,753.39
2023-11-07T10:02:30.622Z,746.64
2023-11-07T10:03:30.748Z,748.74
2023-11-07T10:04:30.873Z,750.42
2023-11-07T10:05:30.491Z,750.84
2023-11-07T10:06:30.487Z,754.24
2023-11-07T10:07:31.078Z,755.52
2023-11-07T10:08:31.135Z,749.16
2023-11-07T10:09:30.534Z,750.84
2023-11-07T10:10:30.428Z,747.90
2023-11-07T10:11:30.420Z,753.81
2023-11-07T10:12:30.494Z,750.00
2023-11-07T10:13:30.421Z,743.40
2023-11-07T10:14:30.422Z,749.16
2023-11-07T10:15:30.398Z,748.74
2023-11-07T10:16:30.364Z,749.58
2023-11-07T10:17:30.446Z,748.74
2023-11-07T10:18:30.452Z,754.66
2023-11-07T10:19:30.455Z,748.74
2023-11-07T10:20:30.346Z,750.00
2023-11-07T10:21:30.349Z,751.69
2023-11-07T10:22:30.318Z,747.06
2023-11-07T10:23:30.348Z,750.84
2023-11-07T10:24:30.322Z,752.96
2023-11-07T10:25:30.368Z,750.84
2023-11-07T10:26:30.308Z,752.96
2023-11-07T10:27:30.272Z,750.84
2023-11-07T10:28:30.243Z,755.95
2023-11-07T10:29:30.333Z,753.39
2023-11-07T10:30:30.302Z,758.95
2023-11-07T10:31:30.250Z,754.66
2023-11-07T10:32:30.221Z,757.23
2023-11-07T10:33:30.738Z,757.23
2023-11-07T10:34:30.210Z,758.52
2023-11-07T10:35:30.149Z,756.37
2023-11-07T10:36:30.303Z,761.12
2023-11-07T10:37:30.139Z,760.68
2023-11-07T10:38:30.696Z,757.66
2023-11-07T10:39:30.145Z,758.09
2023-11-07T10:40:30.097Z,761.55
2023-11-07T10:41:30.243Z,754.24
2023-11-07T10:42:30.078Z,758.52
2023-11-07T10:43:30.149Z,756.37
2023-11-07T10:44:30.483Z,753.81
2023-11-07T10:45:30.102Z,755.95
2023-11-07T10:46:30.046Z,755.09
2023-11-07T10:47:30.154Z,756.80
2023-11-07T10:48:30.088Z,761.55
2023-11-07T10:49:30.079Z,758.09
2023-11-07T10:50:30.005Z,755.95
2023-11-07T10:51:30.024Z,753.39
2023-11-07T10:52:30.054Z,758.09
2023-11-07T10:53:29.983Z,755.52
2023-11-07T10:54:29.955Z,755.09
2023-11-07T10:55:29.952Z,754.66
2023-11-07T10:56:29.983Z,757.23
2023-11-07T10:57:29.942Z,757.23
2023-11-07T10:58:29.903Z,755.52
2023-11-07T10:59:29.908Z,757.66
2023-11-07T11:00:29.963Z,759.39
2023-11-07T11:01:29.943Z,758.52
2023-11-07T11:02:29.904Z,758.09
2023-11-07T11:03:30.225Z,756.37
2023-11-07T11:04:29.969Z,757.23
2023-11-07T11:05:29.854Z,757.66
2023-11-07T11:06:29.836Z,757.23
2023-11-07T11:07:29.835Z,755.95
2023-11-07T11:08:29.841Z,755.95
2023-11-07T11:09:29.859Z,755.52
2023-11-07T11:10:29.941Z,754.66
2023-11-07T11:11:31.731Z,754.24
2023-11-07T11:12:29.765Z,753.81
2023-11-07T11:13:29.780Z,752.96
2023-11-07T11:14:29.753Z,755.52
2023-11-07T11:15:29.957Z,752.11
2023-11-07T11:16:29.805Z,754.66
2023-11-07T11:17:29.749Z,755.09
2023-11-07T11:18:30.000Z,752.96
2023-11-07T11:19:29.857Z,752.11
2023-11-07T11:20:29.690Z,755.09
2023-11-07T11:21:29.711Z,752.96
2023-11-07T11:22:29.642Z,753.81
2023-11-07T11:23:29.887Z,751.69
2023-11-07T11:24:29.616Z,750.42
2023-11-07T11:25:29.742Z,751.69
2023-11-07T11:26:29.636Z,755.09
2023-11-07T11:27:29.836Z,750.42
2023-11-07T11:28:29.643Z,752.54
2023-11-07T11:29:29.598Z,749.16
2023-11-07T11:30:29.820Z,752.11
2023-11-07T11:31:29.574Z,751.27
2023-11-07T11:32:29.632Z,750.00
2023-11-07T11:33:29.676Z,749.58
2023-11-07T11:34:29.710Z,749.16
2023-11-07T11:35:29.512Z,752.11
2023-11-07T11:36:29.501Z,749.16
2023-11-07T11:37:29.493Z,747.48
2023-11-07T11:38:29.487Z,748.32
2023-11-07T11:39:29.564Z,750.42
2023-11-07T11:40:29.462Z,749.58
2023-11-07T11:41:29.519Z,749.16
2023-11-07T11:42:29.582Z,750.42
2023-11-07T11:43:29.498Z,747.90
2023-11-07T11:44:29.411Z,747.90
2023-11-07T11:45:40.813Z,748.32
2023-11-07T11:46:30.395Z,748.74
2023-11-07T11:47:29.429Z,748.32
2023-11-07T11:48:29.501Z,750.42
2023-11-07T11:49:29.468Z,748.32
2023-11-07T11:50:29.367Z,748.74
2023-11-07T11:51:29.335Z,748.41
2023-11-07T11:52:29.394Z,747.06
2023-11-07T11:53:29.363Z,746.64
2023-11-07T11:54:29.478Z,747.90
2023-11-07T11:55:29.317Z,748.41
2023-11-07T11:56:29.286Z,746.23
2023-11-07T11:57:29.300Z,748.32
2023-11-07T11:58:29.289Z,748.32
2023-11-07T11:59:29.335Z,747.90
2023-11-07T12:00:29.306Z,746.23
2023-11-07T12:01:29.279Z,748.74
2023-11-07T12:02:29.269Z,749.25
2023-11-07T12:03:29.324Z,749.58
2023-11-07T12:04:29.274Z,747.06
2023-11-07T12:05:29.224Z,748.32
2023-11-07T12:06:29.491Z,748.74
2023-11-07T12:07:29.176Z,748.74
2023-11-07T12:08:29.173Z,749.58
2023-11-07T12:09:29.184Z,746.64
2023-11-07T12:10:29.193Z,746.23
2023-11-07T12:11:40.724Z,747.48
2023-11-07T12:12:30.198Z,747.06
2023-11-07T12:13:29.119Z,746.73
2023-11-07T12:14:29.077Z,748.32
2023-11-07T12:15:29.236Z,748.41
2023-11-07T12:16:29.072Z,747.06
2023-11-07T12:17:29.085Z,748.41
2023-11-07T12:18:29.189Z,746.64
2023-11-07T12:19:29.118Z,747.06
2023-11-07T12:20:29.059Z,747.48
2023-11-07T12:21:29.059Z,747.06
2023-11-07T12:22:29.058Z,748.41
2023-11-07T12:23:29.012Z,746.23
2023-11-07T12:24:29.009Z,747.90
2023-11-07T12:25:29.070Z,747.90
2023-11-07T12:26:28.952Z,750.42
2023-11-07T12:27:28.961Z,749.58
2023-11-07T12:28:29.018Z,746.64